createdAt,value
2022-09-28T00:02:10.790Z,0.30
2022-09-28T00:04:39.584Z,0.22
2022-09-28T00:07:06.988Z,0.27
2022-09-28T00:09:34.437Z,0.30
2022-09-28T00:12:02.266Z,0.20
2022-09-28T00:14:32.197Z,0.20
2022-09-28T00:16:59.619Z,0.30
2022-09-28T00:19:27.114Z,0.30
2022-09-28T00:21:55.875Z,0.10
2022-09-28T00:24:27.517Z,0.20
2022-09-28T00:26:57.101Z,0.20
2022-09-28T00:29:27.145Z,0.20
2022-09-28T00:31:59.729Z,0.10
2022-09-28T00:34:28.006Z,0.15
2022-09-28T00:36:56.750Z,0.20
2022-09-28T00:39:24.509Z,0.10
2022-09-28T00:41:52.368Z,0.10
2022-09-28T00:44:42.490Z,0.40
2022-09-28T00:47:39.900Z,0.20
2022-09-28T00:50:12.346Z,0.10
2022-09-28T00:52:46.484Z,0.10
2022-09-28T00:55:17.051Z,0.17
2022-09-28T00:57:49.148Z,0.22
2022-09-28T01:00:17.249Z,0.20
2022-09-28T01:02:46.486Z,0.28
2022-09-28T01:05:15.232Z,0.30
2022-09-28T01:07:46.525Z,0.38
2022-09-28T01:10:15.017Z,0.20
2022-09-28T01:12:42.463Z,0.20
2022-09-28T01:15:10.928Z,0.28
2022-09-28T01:17:51.752Z,0.30
2022-09-28T01:20:35.299Z,0.10
2022-09-28T01:23:35.360Z,0.30
2022-09-28T01:26:50.482Z,0.40
2022-09-28T01:29:27.532Z,0.20
2022-09-28T01:32:02.574Z,0.40
2022-09-28T01:34:36.850Z,0.30
2022-09-28T01:37:10.681Z,0.40
2022-09-28T01:39:41.616Z,0.40
2022-09-28T01:42:12.935Z,0.30
2022-09-28T01:44:47.584Z,0.40
2022-09-28T01:47:18.983Z,0.40
2022-09-28T01:49:49.827Z,0.30
2022-09-28T01:52:22.738Z,0.43
2022-09-28T01:54:54.555Z,0.40
2022-09-28T01:57:27.619Z,0.50
2022-09-28T02:00:01.481Z,0.40
2022-09-28T02:02:34.256Z,0.40
2022-09-28T02:05:06.044Z,0.45
2022-09-28T02:07:38.191Z,0.57
2022-09-28T02:10:11.852Z,0.40
2022-09-28T02:12:44.888Z,0.55
2022-09-28T02:15:20.543Z,0.50
2022-09-28T02:17:48.575Z,0.40
2022-09-28T02:20:16.853Z,0.30
2022-09-28T02:22:48.490Z,0.40
2022-09-28T02:25:23.831Z,0.20
2022-09-28T02:27:57.885Z,0.35
2022-09-28T02:30:26.964Z,0.30
2022-09-28T02:32:58.015Z,0.40
2022-09-28T02:35:25.485Z,0.30
2022-09-28T02:37:53.411Z,0.30
2022-09-28T02:40:23.115Z,0.30
2022-09-28T02:43:00.707Z,0.30
2022-09-28T02:45:42.344Z,0.25
2022-09-28T02:48:35.961Z,0.40
2022-09-28T02:51:21.302Z,0.30
2022-09-28T02:54:13.451Z,0.23
2022-09-28T02:57:11.162Z,0.20
2022-09-28T02:59:50.353Z,0.30
2022-09-28T03:02:27.046Z,0.40
2022-09-28T03:05:07.070Z,0.50
2022-09-28T03:07:37.781Z,0.27
2022-09-28T03:10:10.925Z,0.38
2022-09-28T03:12:40.112Z,0.40
2022-09-28T03:15:10.364Z,0.45
2022-09-28T03:17:39.630Z,0.57
2022-09-28T03:20:08.155Z,0.60
2022-09-28T03:22:35.543Z,0.70
2022-09-28T03:25:02.944Z,0.60
2022-09-28T03:27:30.340Z,1.13
2022-09-28T03:29:57.741Z,1.20
2022-09-28T03:32:25.279Z,0.88
2022-09-28T03:34:54.283Z,1.08
2022-09-28T03:37:21.689Z,1.25
2022-09-28T03:39:49.150Z,0.85
2022-09-28T03:42:16.559Z,0.70
2022-09-28T03:44:43.957Z,0.95
2022-09-28T03:47:11.559Z,0.75
2022-09-28T03:49:39.088Z,0.80
2022-09-28T03:52:08.173Z,0.98
2022-09-28T03:54:35.589Z,1.10
2022-09-28T03:57:03.008Z,0.60
2022-09-28T03:59:30.635Z,0.70
2022-09-28T04:01:58.316Z,0.75
2022-09-28T04:04:25.728Z,1.08
2022-09-28T04:06:53.139Z,1.20
2022-09-28T04:09:21.900Z,0.90
2022-09-28T04:12:03.437Z,1.20
2022-09-28T04:14:31.832Z,1.50
2022-09-28T04:16:59.305Z,1.17
2022-09-28T04:19:26.693Z,1.05
2022-09-28T04:21:54.116Z,1.10
2022-09-28T04:24:22.887Z,1.60
2022-09-28T04:26:50.330Z,1.38
2022-09-28T04:29:16.951Z,1.77
2022-09-28T04:31:47.138Z,1.23
2022-09-28T04:34:17.233Z,1.40
2022-09-28T04:36:44.879Z,1.10
2022-09-28T04:39:12.420Z,1.30
2022-09-28T04:41:41.238Z,1.30
2022-09-28T04:44:08.927Z,1.73
2022-09-28T04:46:36.800Z,1.57
2022-09-28T04:49:04.556Z,1.30
2022-09-28T04:51:32.667Z,2.03
2022-09-28T04:54:00.136Z,1.50
2022-09-28T04:56:28.300Z,1.70
2022-09-28T04:58:57.009Z,1.40
2022-09-28T05:01:24.542Z,1.30
2022-09-28T05:03:51.985Z,1.23
2022-09-28T05:06:19.378Z,1.17
2022-09-28T05:08:47.621Z,0.95
2022-09-28T05:11:15.746Z,1.40
2022-09-28T05:13:45.189Z,1.17
2022-09-28T05:16:15.749Z,1.58
2022-09-28T05:18:43.534Z,1.38
2022-09-28T05:21:12.674Z,1.70
2022-09-28T05:23:40.513Z,1.45
2022-09-28T05:26:08.429Z,1.77
2022-09-28T05:28:35.815Z,1.50
2022-09-28T05:31:04.984Z,1.40
2022-09-28T05:33:34.337Z,1.08
2022-09-28T05:36:02.177Z,1.30
2022-09-28T05:38:29.754Z,1.40
2022-09-28T05:40:57.297Z,1.00
2022-09-28T05:43:24.911Z,1.33
2022-09-28T05:45:55.632Z,1.25
2022-09-28T05:48:23.700Z,1.43
2022-09-28T05:50:53.466Z,1.20
2022-09-28T05:53:21.172Z,1.30
2022-09-28T05:55:49.102Z,1.15
2022-09-28T05:58:16.961Z,1.30
2022-09-28T06:00:44.663Z,1.65
2022-09-28T06:03:13.765Z,1.23
2022-09-28T06:05:41.616Z,1.23
2022-09-28T06:08:11.528Z,1.23
2022-09-28T06:10:39.330Z,1.45
2022-09-28T06:13:07.160Z,1.33
2022-09-28T06:15:36.154Z,1.27
2022-09-28T06:18:06.415Z,1.60
2022-09-28T06:20:36.181Z,1.63
2022-09-28T06:23:04.125Z,1.85
2022-09-28T06:25:33.033Z,1.80
2022-09-28T06:28:04.321Z,2.05
2022-09-28T06:30:33.955Z,1.73
2022-09-28T06:33:02.755Z,1.67
2022-09-28T06:35:31.390Z,2.13
2022-09-28T06:37:59.880Z,1.07
2022-09-28T06:40:28.223Z,1.30
2022-09-28T06:42:58.675Z,1.58
2022-09-28T06:45:27.067Z,1.73
2022-09-28T06:47:56.517Z,1.70
2022-09-28T06:50:24.066Z,1.57
2022-09-28T06:52:53.284Z,1.52
2022-09-28T06:55:20.933Z,1.10
2022-09-28T06:57:48.700Z,1.48
2022-09-28T07:00:17.760Z,1.83
2022-09-28T07:02:45.164Z,1.73
2022-09-28T07:05:14.471Z,1.17
2022-09-28T07:07:44.652Z,1.30
2022-09-28T07:10:12.746Z,1.30
2022-09-28T07:12:40.496Z,1.50
2022-09-28T07:15:09.228Z,1.10
2022-09-28T07:17:52.971Z,1.23
2022-09-28T07:20:22.213Z,1.30
2022-09-28T07:22:53.924Z,1.42
2022-09-28T07:25:21.425Z,1.33
2022-09-28T07:27:48.817Z,1.63
2022-09-28T07:30:17.037Z,1.20
2022-09-28T07:32:48.276Z,1.15
2022-09-28T07:35:15.999Z,1.45
2022-09-28T07:37:43.402Z,0.95
2022-09-28T07:40:29.077Z,1.00
2022-09-28T07:42:56.689Z,1.00
2022-09-28T07:45:24.702Z,0.90
2022-09-28T07:47:56.196Z,0.80
2022-09-28T07:50:23.707Z,0.90
2022-09-28T07:52:51.114Z,0.70
2022-09-28T07:55:18.511Z,0.88
2022-09-28T07:57:46.928Z,0.70
2022-09-28T08:00:15.568Z,0.75
2022-09-28T08:02:42.991Z,0.60
2022-09-28T08:05:12.363Z,0.67
2022-09-28T08:07:39.752Z,1.02
2022-09-28T08:10:07.867Z,0.70
2022-09-28T08:12:35.798Z,0.60
2022-09-28T08:15:04.335Z,0.77
2022-09-28T08:17:31.711Z,0.70
2022-09-28T08:20:16.390Z,0.60
2022-09-28T08:22:45.205Z,0.50
2022-09-28T08:25:12.627Z,0.60
2022-09-28T08:27:40.079Z,0.68
2022-09-28T08:30:08.812Z,0.60
2022-09-28T08:32:36.580Z,0.57
2022-09-28T08:35:04.265Z,0.55
2022-09-28T08:37:31.670Z,0.47
2022-09-28T08:40:00.386Z,0.55
2022-09-28T08:42:34.873Z,0.57
2022-09-28T08:45:08.801Z,0.50
2022-09-28T08:48:09.386Z,0.50
2022-09-28T08:50:42.531Z,0.30
2022-09-28T08:53:28.747Z,0.35
2022-09-28T08:55:59.796Z,0.43
2022-09-28T08:58:33.575Z,0.45
2022-09-28T09:01:03.073Z,0.30
2022-09-28T09:03:34.010Z,0.40
2022-09-28T09:06:10.355Z,0.40
2022-09-28T09:08:49.945Z,0.30
2022-09-28T09:11:34.014Z,0.30
2022-09-28T09:14:13.826Z,0.40
2022-09-28T09:16:51.141Z,0.40
2022-09-28T09:19:35.384Z,0.28
2022-09-28T09:22:16.255Z,0.30
2022-09-28T09:24:50.687Z,0.30
2022-09-28T09:27:42.040Z,0.30
2022-09-28T09:30:12.699Z,0.47
2022-09-28T09:32:57.056Z,0.38
2022-09-28T09:35:40.459Z,0.30
2022-09-28T09:38:27.702Z,0.28
2022-09-28T09:41:11.530Z,0.20
2022-09-28T09:43:58.730Z,0.20
2022-09-28T09:46:36.134Z,0.20
2022-09-28T09:49:11.394Z,0.13
2022-09-28T09:51:44.544Z,0.20
2022-09-28T09:54:19.643Z,0.28
2022-09-28T09:56:53.632Z,0.30
2022-09-28T09:59:25.889Z,0.20
2022-09-28T10:01:54.467Z,0.20
2022-09-28T10:04:26.990Z,0.60
2022-09-28T10:06:59.860Z,0.50
2022-09-28T10:09:31.772Z,0.25
2022-09-28T10:11:59.262Z,0.38
2022-09-28T10:14:28.403Z,0.53
2022-09-28T10:16:58.744Z,0.43
2022-09-28T10:19:31.655Z,0.30
2022-09-28T10:22:02.516Z,0.30
2022-09-28T10:24:33.095Z,0.20
2022-09-28T10:27:06.437Z,0.23
2022-09-28T10:29:43.776Z,0.35
2022-09-28T10:32:23.734Z,0.40
2022-09-28T10:34:52.434Z,0.40
2022-09-28T10:37:20.446Z,0.30
2022-09-28T10:39:53.124Z,0.40
2022-09-28T10:42:23.531Z,0.40
2022-09-28T10:45:00.083Z,0.50
2022-09-28T10:47:32.475Z,0.30
2022-09-28T10:50:00.758Z,0.30
2022-09-28T10:52:36.949Z,0.30
2022-09-28T10:55:24.959Z,0.28
2022-09-28T10:57:52.911Z,0.30
2022-09-28T11:00:38.537Z,0.30
2022-09-28T11:03:06.188Z,0.60
2022-09-28T11:05:33.812Z,0.50
2022-09-28T11:08:07.994Z,0.35
2022-09-28T11:10:35.663Z,0.60
2022-09-28T11:13:03.049Z,0.65
2022-09-28T11:15:32.896Z,0.47
2022-09-28T11:18:21.082Z,0.43
2022-09-28T11:20:49.417Z,0.70
2022-09-28T11:23:20.624Z,0.55
2022-09-28T11:25:59.667Z,0.50
2022-09-28T11:28:32.615Z,0.40
2022-09-28T11:31:01.331Z,0.40
2022-09-28T11:33:36.038Z,0.50
2022-09-28T11:36:22.140Z,0.32
2022-09-28T11:39:01.015Z,0.45
2022-09-28T11:41:43.729Z,0.40
2022-09-28T11:44:44.540Z,0.50
2022-09-28T11:47:30.072Z,0.40
2022-09-28T11:50:06.385Z,0.55
2022-09-28T11:52:40.193Z,0.50
2022-09-28T11:55:15.256Z,0.60
2022-09-28T11:57:47.302Z,0.50
2022-09-28T12:00:17.412Z,0.50
2022-09-28T12:02:51.931Z,0.60
2022-09-28T12:05:26.755Z,0.60
2022-09-28T12:07:57.755Z,0.45
2022-09-28T12:10:42.166Z,0.40
2022-09-28T12:13:17.263Z,0.60
2022-09-28T12:16:20.062Z,0.73
2022-09-28T12:18:45.835Z,0.47
2022-09-28T12:21:28.652Z,0.77
2022-09-28T12:24:07.713Z,0.73
2022-09-28T12:26:42.623Z,0.60
2022-09-28T12:29:15.132Z,0.63
2022-09-28T12:31:54.715Z,0.90
2022-09-28T12:34:23.220Z,0.60
2022-09-28T12:37:05.503Z,0.70
2022-09-28T12:40:01.335Z,0.80
2022-09-28T12:42:53.518Z,0.50
2022-09-28T12:45:47.902Z,0.88
2022-09-28T12:48:37.788Z,0.80
2022-09-28T12:51:15.923Z,0.70
2022-09-28T12:54:14.788Z,0.70
2022-09-28T12:56:57.969Z,0.52
2022-09-28T12:59:31.766Z,0.60
2022-09-28T13:02:22.215Z,0.63
2022-09-28T13:05:13.366Z,0.63
2022-09-28T13:07:50.554Z,0.50
2022-09-28T13:10:32.570Z,0.70
2022-09-28T13:13:19.204Z,0.60
2022-09-28T13:15:52.975Z,0.60
2022-09-28T13:18:29.152Z,0.70
2022-09-28T13:21:15.972Z,0.60
2022-09-28T13:23:45.751Z,0.60
2022-09-28T13:26:24.031Z,0.85
2022-09-28T13:28:54.657Z,0.70
2022-09-28T13:31:30.873Z,0.50
2022-09-28T13:34:02.884Z,0.65
2022-09-28T13:36:45.843Z,0.80
2022-09-28T13:39:48.676Z,0.80
2022-09-28T13:42:29.132Z,0.80
2022-09-28T13:45:37.118Z,0.90
2022-09-28T13:48:15.268Z,0.60
2022-09-28T13:51:16.172Z,0.90
2022-09-28T13:54:16.868Z,0.80
2022-09-28T13:56:54.940Z,0.93
2022-09-28T13:59:27.614Z,1.07
2022-09-28T14:02:06.947Z,0.80
2022-09-28T14:04:54.292Z,0.98
2022-09-28T14:07:25.351Z,1.17
2022-09-28T14:10:17.232Z,1.10
2022-09-28T14:12:47.217Z,1.03
2022-09-28T14:15:40.716Z,1.33
2022-09-28T14:18:20.803Z,1.20
2022-09-28T14:21:04.127Z,1.25
2022-09-28T14:23:47.561Z,1.00
2022-09-28T14:26:46.922Z,1.10
2022-09-28T14:29:28.430Z,1.10
2022-09-28T14:31:59.073Z,0.85
2022-09-28T14:34:36.088Z,0.80
2022-09-28T14:37:23.416Z,0.88
2022-09-28T14:40:09.327Z,0.90
2022-09-28T14:42:37.048Z,1.02
2022-09-28T14:45:35.916Z,0.75
2022-09-28T14:48:16.378Z,0.98
2022-09-28T14:50:43.795Z,1.08
2022-09-28T14:53:13.900Z,1.20
2022-09-28T14:55:50.122Z,1.17
2022-09-28T14:58:22.499Z,1.10
2022-09-28T15:00:56.596Z,0.90
2022-09-28T15:03:29.802Z,1.05
2022-09-28T15:05:57.519Z,1.20
2022-09-28T15:08:36.960Z,1.40
2022-09-28T15:11:04.545Z,1.23
2022-09-28T15:13:31.997Z,1.30
2022-09-28T15:16:04.460Z,1.08
2022-09-28T15:19:04.051Z,1.30
2022-09-28T15:21:37.332Z,1.20
2022-09-28T15:24:24.769Z,1.10
2022-09-28T15:26:53.048Z,1.50
2022-09-28T15:29:22.657Z,1.67
2022-09-28T15:31:54.281Z,0.97
2022-09-28T15:34:48.666Z,1.20
2022-09-28T15:37:21.877Z,0.90
2022-09-28T15:39:50.922Z,0.60
2022-09-28T15:42:19.284Z,0.50
2022-09-28T15:45:06.007Z,0.80
2022-09-28T15:47:33.655Z,0.65
2022-09-28T15:50:05.001Z,0.80
2022-09-28T15:52:36.964Z,0.70
2022-09-28T15:55:07.035Z,1.00
2022-09-28T15:57:38.106Z,0.97
2022-09-28T16:00:22.703Z,0.90
2022-09-28T16:03:01.541Z,0.60
2022-09-28T16:05:39.126Z,0.60
2022-09-28T16:08:14.779Z,0.60
2022-09-28T16:10:55.105Z,0.50
2022-09-28T16:13:23.832Z,0.70
2022-09-28T16:15:57.770Z,0.60
2022-09-28T16:18:26.435Z,0.60
2022-09-28T16:20:57.016Z,0.60
2022-09-28T16:23:27.712Z,0.67
2022-09-28T16:26:00.074Z,0.40
2022-09-28T16:28:51.522Z,0.32
2022-09-28T16:31:28.155Z,0.43
2022-09-28T16:33:58.871Z,0.40
2022-09-28T16:36:30.102Z,0.40
2022-09-28T16:38:57.680Z,0.55
2022-09-28T16:41:28.801Z,0.68
2022-09-28T16:44:00.883Z,0.50
2022-09-28T16:46:33.601Z,0.40
2022-09-28T16:49:02.889Z,0.80
2022-09-28T16:51:32.395Z,0.80
2022-09-28T16:54:19.959Z,0.60
2022-09-28T16:56:47.449Z,0.80
2022-09-28T16:59:14.947Z,0.90
2022-09-28T17:01:43.810Z,0.90
2022-09-28T17:04:11.970Z,0.88
2022-09-28T17:06:40.734Z,0.80
2022-09-28T17:09:14.103Z,1.20
2022-09-28T17:11:41.485Z,1.25
2022-09-28T17:14:09.316Z,1.00
2022-09-28T17:19:28.687Z,1.10
2022-09-28T17:21:57.446Z,1.15
2022-09-28T17:24:24.895Z,1.20
2022-09-28T17:26:53.152Z,1.20
2022-09-28T17:29:21.014Z,1.20
2022-09-28T17:31:48.722Z,1.45
2022-09-28T17:34:16.952Z,1.20
2022-09-28T17:36:45.569Z,1.58
2022-09-28T17:39:16.805Z,1.50
2022-09-28T17:41:44.355Z,1.90
2022-09-28T17:44:15.830Z,1.80
2022-09-28T17:46:48.374Z,2.03
2022-09-28T17:49:16.900Z,2.00
2022-09-28T17:51:44.356Z,1.73
2022-09-28T17:54:12.837Z,1.60
2022-09-28T17:56:42.305Z,2.30
2022-09-28T17:59:14.320Z,1.40
2022-09-28T18:01:41.953Z,1.75
2022-09-28T18:04:22.997Z,1.90
2022-09-28T18:06:59.409Z,1.48
2022-09-28T18:09:26.884Z,1.17
2022-09-28T18:12:00.486Z,1.77
2022-09-28T18:14:28.298Z,1.90
2022-09-28T18:16:55.756Z,1.80
2022-09-28T18:19:23.215Z,1.45
2022-09-28T18:21:50.661Z,1.83
2022-09-28T18:24:18.214Z,1.48
2022-09-28T18:26:45.807Z,1.65
2022-09-28T18:29:14.580Z,1.70
2022-09-28T18:31:42.041Z,1.90
2022-09-28T18:34:10.765Z,1.60
2022-09-28T18:36:38.270Z,1.50
2022-09-28T18:39:05.724Z,1.63
2022-09-28T18:41:33.323Z,1.60
2022-09-28T18:44:01.376Z,2.10
2022-09-28T18:46:31.265Z,2.00
2022-09-28T18:48:58.803Z,2.30
2022-09-28T18:51:26.350Z,2.15
2022-09-28T18:53:53.775Z,2.10
2022-09-28T18:56:21.781Z,2.45
2022-09-28T18:58:49.721Z,2.33
2022-09-28T19:01:30.089Z,2.00
2022-09-28T19:04:01.329Z,2.25
2022-09-28T19:06:29.670Z,2.67
2022-09-28T19:08:57.274Z,2.97
2022-09-28T19:11:25.675Z,4.88
2022-09-28T19:13:54.361Z,9.15
2022-09-28T19:16:23.991Z,6.43
2022-09-28T19:18:52.288Z,2.50
2022-09-28T19:21:21.265Z,2.95
2022-09-28T19:23:50.036Z,2.22
2022-09-28T19:26:20.285Z,3.13
2022-09-28T19:28:47.746Z,2.80
2022-09-28T19:31:15.241Z,2.60
2022-09-28T19:33:43.670Z,2.08
2022-09-28T19:36:14.402Z,1.77
2022-09-28T19:38:43.292Z,1.63
2022-09-28T19:41:11.260Z,1.70
2022-09-28T19:43:43.558Z,1.80
2022-09-28T19:46:12.638Z,1.95
2022-09-28T19:48:41.145Z,2.20
2022-09-28T19:51:10.108Z,2.20
2022-09-28T19:53:37.589Z,1.80
2022-09-28T19:56:06.896Z,2.20
2022-09-28T19:58:36.296Z,2.80
2022-09-28T20:01:06.511Z,2.55
2022-09-28T20:03:34.001Z,3.13
2022-09-28T20:06:02.565Z,2.90
2022-09-28T20:08:30.893Z,1.90
2022-09-28T20:10:59.725Z,1.60
2022-09-28T20:13:32.724Z,1.58
2022-09-28T20:16:04.454Z,1.83
2022-09-28T20:18:34.400Z,1.80
2022-09-28T20:21:02.983Z,1.43
2022-09-28T20:23:31.245Z,1.70
2022-09-28T20:25:58.852Z,1.73
2022-09-28T20:28:26.277Z,2.00
2022-09-28T20:30:55.442Z,1.75
2022-09-28T20:33:28.582Z,1.60
2022-09-28T20:35:56.486Z,2.15
2022-09-28T20:38:24.002Z,2.22
2022-09-28T20:40:51.430Z,2.03
2022-09-28T20:43:18.949Z,2.05
2022-09-28T20:45:46.332Z,2.35
2022-09-28T20:48:15.223Z,2.38
2022-09-28T20:50:43.255Z,1.75
2022-09-28T20:53:10.665Z,2.00
2022-09-28T20:55:38.070Z,2.33
2022-09-28T20:58:05.496Z,2.27
2022-09-28T21:00:33.046Z,2.33
2022-09-28T21:03:00.452Z,2.35
2022-09-28T21:05:30.548Z,2.30
2022-09-28T21:07:59.123Z,2.67
2022-09-28T21:10:30.204Z,2.73
2022-09-28T21:12:57.640Z,2.40
2022-09-28T21:15:25.139Z,2.53
2022-09-28T21:17:52.582Z,2.58
2022-09-28T21:20:19.973Z,2.58
2022-09-28T21:22:48.696Z,2.23
2022-09-28T21:25:16.205Z,2.38
2022-09-28T21:27:44.683Z,2.40
2022-09-28T21:30:13.053Z,2.70
2022-09-28T21:32:40.468Z,2.80
2022-09-28T21:35:08.627Z,2.38
2022-09-28T21:37:36.037Z,2.78
2022-09-28T21:40:09.402Z,2.38
2022-09-28T21:42:36.791Z,2.90
2022-09-28T21:45:04.721Z,2.33
2022-09-28T21:47:32.132Z,2.30
2022-09-28T21:49:59.565Z,2.25
2022-09-28T21:52:27.294Z,2.35
2022-09-28T21:54:54.995Z,2.60
2022-09-28T21:57:23.855Z,2.85
2022-09-28T21:59:51.251Z,2.40
2022-09-28T22:02:19.010Z,2.45
2022-09-28T22:04:46.438Z,2.40
2022-09-28T22:07:13.836Z,2.45
2022-09-28T22:09:41.256Z,2.53
2022-09-28T22:12:08.708Z,2.58
2022-09-28T22:14:37.453Z,2.80
2022-09-28T22:17:04.877Z,3.08
2022-09-28T22:19:32.300Z,2.67
2022-09-28T22:21:59.704Z,2.70
2022-09-28T22:24:27.184Z,2.83
2022-09-28T22:26:54.695Z,2.80
2022-09-28T22:29:22.456Z,2.70
2022-09-28T22:31:51.273Z,2.65
2022-09-28T22:34:18.929Z,3.17
2022-09-28T22:36:46.433Z,2.30
2022-09-28T22:39:14.598Z,2.60
2022-09-28T22:41:42.008Z,2.72
2022-09-28T22:44:09.409Z,2.67
2022-09-28T22:46:36.885Z,2.80
2022-09-28T22:49:05.941Z,2.88
2022-09-28T22:51:33.352Z,2.58
2022-09-28T22:54:01.080Z,2.88
2022-09-28T22:56:28.780Z,2.90
2022-09-28T22:58:56.368Z,2.67
2022-09-28T23:01:25.505Z,3.00
2022-09-28T23:03:53.983Z,2.90
2022-09-28T23:06:25.828Z,2.47
2022-09-28T23:08:53.912Z,2.47
2022-09-28T23:11:21.444Z,3.05
2022-09-28T23:13:52.618Z,2.77
2022-09-28T23:16:22.768Z,3.25
2022-09-28T23:18:50.240Z,3.20
2022-09-28T23:21:19.308Z,3.10
2022-09-28T23:23:53.094Z,3.60
2022-09-28T23:26:23.442Z,2.80
2022-09-28T23:28:51.680Z,3.10
2022-09-28T23:31:21.052Z,3.05
2022-09-28T23:33:48.683Z,3.00
2022-09-28T23:36:16.884Z,3.47
2022-09-28T23:38:44.585Z,3.05
2022-09-28T23:41:13.290Z,3.42
2022-09-28T23:43:40.735Z,3.08
2022-09-28T23:46:08.226Z,2.83
2022-09-28T23:48:35.711Z,3.15
2022-09-28T23:51:03.916Z,3.00
2022-09-28T23:53:32.095Z,2.83
2022-09-28T23:55:59.646Z,3.10
2022-09-28T23:58:28.488Z,2.83
